createdAt,value
2023-01-12T00:00:05.771Z,26.40
2023-01-12T00:05:15.276Z,26.50
2023-01-12T00:10:17.570Z,26.40
2023-01-12T00:15:39.996Z,26.30
2023-01-12T00:20:48.255Z,26.20
2023-01-12T00:25:51.852Z,26.40
2023-01-12T00:30:59.427Z,26.20
2023-01-12T00:36:13.868Z,26.20
2023-01-12T00:41:35.989Z,26.50
2023-01-12T00:46:38.178Z,26.40
2023-01-12T00:56:42.878Z,26.40
2023-01-12T01:06:48.581Z,26.50
2023-01-12T01:11:50.724Z,26.50
2023-01-12T01:16:52.925Z,26.20
2023-01-12T01:26:57.538Z,25.90
2023-01-12T01:31:59.605Z,26.00
2023-01-12T01:37:02.133Z,25.90
2023-01-12T01:42:04.322Z,25.80
2023-01-12T01:47:26.537Z,25.70
2023-01-12T01:52:30.842Z,25.20
2023-01-12T02:02:45.740Z,25.60
2023-01-12T02:07:49.704Z,25.60
2023-01-12T02:13:10.469Z,25.40
2023-01-12T02:18:24.951Z,25.30
2023-01-12T02:24:19.304Z,25.30
2023-01-12T02:29:54.805Z,25.00
2023-01-12T02:34:59.680Z,25.10
2023-01-12T02:40:07.744Z,25.00
2023-01-12T02:45:21.780Z,25.00
2023-01-12T02:50:49.952Z,24.90
2023-01-12T02:55:53.483Z,25.20
2023-01-12T03:00:58.080Z,24.80
2023-01-12T03:06:00.743Z,25.10
2023-01-12T03:11:08.736Z,25.10
2023-01-12T03:16:13.118Z,24.90
2023-01-12T03:21:34.663Z,24.90
2023-01-12T03:26:40.163Z,25.10
2023-01-12T03:31:42.598Z,25.20
2023-01-12T03:37:07.949Z,25.10
2023-01-12T03:42:30.902Z,25.00
2023-01-12T03:52:39.425Z,25.00
2023-01-12T04:02:45.207Z,24.90
2023-01-12T04:07:47.346Z,24.70
2023-01-12T04:12:49.487Z,24.90
2023-01-12T04:17:51.628Z,24.80
2023-01-12T04:28:01.740Z,24.60
2023-01-12T04:33:08.186Z,24.80
2023-01-12T04:38:10.540Z,24.60
2023-01-12T04:43:12.628Z,24.70
2023-01-12T04:48:16.443Z,24.70
2023-01-12T04:53:18.800Z,24.70
2023-01-12T04:58:20.876Z,24.50
2023-01-12T05:03:23.002Z,24.40
2023-01-12T05:08:43.568Z,24.40
2023-01-12T05:13:45.695Z,24.40
2023-01-12T05:18:47.845Z,24.30
2023-01-12T05:23:51.687Z,24.40
2023-01-12T05:28:53.739Z,24.40
2023-01-12T05:33:55.844Z,24.30
2023-01-12T05:38:57.981Z,24.30
2023-01-12T05:44:00.067Z,24.40
2023-01-12T05:49:02.486Z,24.40
2023-01-12T05:54:04.724Z,24.50
2023-01-12T06:04:09.413Z,24.50
2023-01-12T06:09:11.470Z,24.60
2023-01-12T06:14:13.605Z,24.50
2023-01-12T06:19:15.807Z,24.50
2023-01-12T06:34:23.094Z,24.30
2023-01-12T06:44:27.705Z,24.50
2023-01-12T06:49:29.867Z,24.40
2023-01-12T06:54:32.006Z,24.50
2023-01-12T07:04:37.203Z,24.40
2023-01-12T07:09:39.434Z,24.60
2023-01-12T07:14:41.641Z,24.60
2023-01-12T07:19:43.827Z,24.60
2023-01-12T07:24:45.988Z,24.70
2023-01-12T07:29:48.787Z,24.80
2023-01-12T07:34:50.901Z,24.80
2023-01-12T07:39:52.959Z,24.70
2023-01-12T07:44:55.185Z,24.90
2023-01-12T07:49:57.361Z,25.20
2023-01-12T07:54:59.506Z,25.30
2023-01-12T08:00:01.904Z,25.80
2023-01-12T08:05:04.325Z,26.00
2023-01-12T08:10:07.126Z,26.40
2023-01-12T08:20:32.090Z,26.50
2023-01-12T08:25:38.595Z,26.40
2023-01-12T08:30:40.953Z,26.40
2023-01-12T08:35:46.184Z,26.10
2023-01-12T08:41:06.749Z,26.00
2023-01-12T08:46:08.940Z,26.30
2023-01-12T08:51:10.968Z,26.30
2023-01-12T08:56:13.180Z,26.30
2023-01-12T09:01:16.937Z,26.40
2023-01-12T09:06:25.987Z,26.30
2023-01-12T09:11:29.622Z,26.40
2023-01-12T09:16:32.679Z,26.10
2023-01-12T09:21:38.366Z,26.30
2023-01-12T09:26:45.585Z,26.40
2023-01-12T09:31:47.728Z,26.40
2023-01-12T09:36:52.301Z,26.30
2023-01-12T09:42:13.334Z,26.20
2023-01-12T09:47:21.375Z,26.10
2023-01-12T09:52:27.637Z,25.80
2023-01-12T09:58:06.454Z,25.60
2023-01-12T10:03:11.689Z,25.50
2023-01-12T10:08:31.614Z,25.40
2023-01-12T10:13:46.776Z,25.40
2023-01-12T10:18:54.551Z,25.60
2023-01-12T10:23:57.207Z,25.40
2023-01-12T10:29:02.594Z,25.40
2023-01-12T10:34:11.024Z,25.40
2023-01-12T10:39:33.476Z,25.20
2023-01-12T10:44:35.579Z,25.20
2023-01-12T10:49:38.267Z,25.20
2023-01-12T10:54:41.348Z,25.20
2023-01-12T10:59:55.614Z,25.00
2023-01-12T11:04:57.697Z,25.00
2023-01-12T11:10:20.508Z,24.90
2023-01-12T11:15:22.740Z,25.20
2023-01-12T11:20:50.684Z,25.30
2023-01-12T11:25:54.127Z,25.40
2023-01-12T11:31:01.639Z,25.20
2023-01-12T11:36:08.924Z,25.40
2023-01-12T11:41:23.382Z,25.40
2023-01-12T11:46:46.579Z,25.20
2023-01-12T11:51:53.382Z,25.50
2023-01-12T11:56:58.213Z,25.20
2023-01-12T12:02:11.792Z,25.30
2023-01-12T12:07:27.033Z,25.50
2023-01-12T12:12:44.614Z,25.30
2023-01-12T12:18:08.350Z,25.30
2023-01-12T12:23:31.680Z,25.10
2023-01-12T12:28:57.118Z,25.20
2023-01-12T12:34:21.269Z,25.30
2023-01-12T12:39:35.117Z,25.30
2023-01-12T12:45:17.879Z,25.50
2023-01-12T12:50:40.384Z,25.50
2023-01-12T12:55:43.272Z,25.20
2023-01-12T13:05:53.487Z,24.90
2023-01-12T13:10:58.755Z,24.70
2023-01-12T13:16:33.156Z,24.90
2023-01-12T13:21:57.822Z,25.40
2023-01-12T13:27:01.868Z,25.30
2023-01-12T13:32:35.334Z,25.30
2023-01-12T13:37:48.080Z,25.50
2023-01-12T13:43:09.396Z,25.50
2023-01-12T13:48:13.108Z,25.60
2023-01-12T13:53:28.999Z,25.70
2023-01-12T13:58:42.780Z,25.70
2023-01-12T14:03:53.672Z,25.70
2023-01-12T14:14:59.576Z,25.80
2023-01-12T14:20:01.794Z,25.90
2023-01-12T14:25:25.334Z,25.90
2023-01-12T14:30:27.980Z,26.00
2023-01-12T14:35:31.347Z,25.90
2023-01-12T14:40:34.481Z,26.30
2023-01-12T14:45:55.800Z,26.20
2023-01-12T14:51:24.061Z,26.00
2023-01-12T14:56:38.035Z,26.00
2023-01-12T15:01:40.852Z,25.90
2023-01-12T15:06:46.261Z,25.90
2023-01-12T15:11:48.368Z,25.80
2023-01-12T15:17:10.586Z,25.70
2023-01-12T15:22:31.407Z,25.60
2023-01-12T15:27:33.688Z,25.60
2023-01-12T15:32:46.797Z,25.70
2023-01-12T15:37:51.090Z,25.70
2023-01-12T15:42:53.666Z,25.70
2023-01-12T15:47:56.512Z,25.70
2023-01-12T15:53:00.472Z,25.80
2023-01-12T15:58:02.760Z,25.80
2023-01-12T16:03:06.192Z,25.90
2023-01-12T16:08:08.379Z,25.90
2023-01-12T16:13:12.003Z,26.00
2023-01-12T16:18:14.177Z,26.00
2023-01-12T16:23:16.657Z,26.00
2023-01-12T16:28:18.775Z,26.00
2023-01-12T16:33:21.859Z,26.00
2023-01-12T16:38:24.328Z,26.10
2023-01-12T16:43:28.137Z,26.10
2023-01-12T16:48:31.835Z,26.10
2023-01-12T16:53:34.014Z,26.20
2023-01-12T16:58:37.172Z,26.10
2023-01-12T17:03:41.499Z,26.30
2023-01-12T17:08:44.513Z,26.40
2023-01-12T17:13:55.711Z,26.60
2023-01-12T17:18:58.081Z,26.70
2023-01-12T17:24:00.287Z,26.70
2023-01-12T17:29:02.832Z,26.80
2023-01-12T17:34:05.991Z,26.70
2023-01-12T17:39:09.301Z,26.90
2023-01-12T17:44:11.602Z,27.00
2023-01-12T17:49:14.227Z,27.10
2023-01-12T17:54:16.840Z,26.90
2023-01-12T17:59:22.831Z,26.70
2023-01-12T18:04:25.004Z,26.70
2023-01-12T18:09:28.030Z,26.50
2023-01-12T18:14:30.198Z,26.50
2023-01-12T18:19:33.346Z,26.30
2023-01-12T18:24:35.980Z,26.30
2023-01-12T18:29:38.175Z,26.20
2023-01-12T18:34:47.021Z,26.20
2023-01-12T18:39:49.738Z,26.20
2023-01-12T18:44:51.918Z,26.30
2023-01-12T18:49:57.532Z,26.60
2023-01-12T18:55:00.187Z,26.60
2023-01-12T19:00:12.334Z,26.50
2023-01-12T19:05:16.973Z,26.50
2023-01-12T19:10:19.060Z,26.80
2023-01-12T19:15:39.723Z,26.60
2023-01-12T19:26:02.885Z,26.50
2023-01-12T19:31:09.761Z,26.80
2023-01-12T19:36:16.003Z,26.80
2023-01-12T19:41:36.518Z,26.90
2023-01-12T19:46:39.010Z,26.90
2023-01-12T19:56:46.201Z,26.90
2023-01-12T20:06:53.186Z,26.80
2023-01-12T20:11:55.508Z,26.70
2023-01-12T20:16:57.988Z,26.60
2023-01-12T20:22:00.459Z,26.50
2023-01-12T20:27:02.694Z,26.50
2023-01-12T20:32:06.289Z,26.30
2023-01-12T20:37:08.571Z,26.40
2023-01-12T20:42:10.704Z,26.40
2023-01-12T20:47:12.840Z,26.50
2023-01-12T20:52:14.950Z,26.40
2023-01-12T20:57:17.635Z,26.40
2023-01-12T21:02:21.006Z,26.40
2023-01-12T21:07:23.373Z,26.30
2023-01-12T21:12:27.544Z,26.50
2023-01-12T21:17:31.068Z,26.50
2023-01-12T21:22:34.430Z,26.50
2023-01-12T21:27:36.742Z,26.80
2023-01-12T21:32:38.879Z,26.90
2023-01-12T21:43:02.404Z,27.50
2023-01-12T21:48:05.422Z,27.30
2023-01-12T21:53:08.327Z,27.40
2023-01-12T21:58:10.479Z,27.50
2023-01-12T22:03:12.627Z,27.40
2023-01-12T22:08:14.869Z,27.60
2023-01-12T22:13:17.748Z,27.20
2023-01-12T22:18:20.848Z,27.50
2023-01-12T22:23:23.010Z,27.30
2023-01-12T22:28:25.071Z,27.60
2023-01-12T22:33:27.188Z,27.50
2023-01-12T22:38:29.363Z,27.50
2023-01-12T22:48:34.005Z,27.30
2023-01-12T22:53:36.585Z,27.20
2023-01-12T22:58:39.413Z,27.10
2023-01-12T23:03:42.478Z,27.20
2023-01-12T23:08:45.226Z,26.90
2023-01-12T23:13:47.797Z,27.10
2023-01-12T23:18:50.382Z,27.10
2023-01-12T23:23:58.263Z,27.00
2023-01-12T23:29:02.782Z,27.00
2023-01-12T23:34:04.982Z,26.90
2023-01-12T23:39:08.717Z,27.00
2023-01-12T23:44:10.827Z,26.80
2023-01-12T23:49:12.951Z,27.00
2023-01-12T23:54:17.524Z,27.10
